sensor_id;sensor_type;location;lat;lon;timestamp;temperature;humidity
23532;DHT22;11943;52.270;20.978;2023-07-31T00:00:14;18.60;99.90
23532;DHT22;11943;52.270;20.978;2023-07-31T00:02:41;18.60;99.90
23532;DHT22;11943;52.270;20.978;2023-07-31T00:05:08;18.50;99.90
23532;DHT22;11943;52.270;20.978;2023-07-31T00:07:34;18.50;99.90
23532;DHT22;11943;52.270;20.978;2023-07-31T00:09:59;18.40;99.90
23532;DHT22;11943;52.270;20.978;2023-07-31T00:12:25;18.40;99.90
23532;DHT22;11943;52.270;20.978;2023-07-31T00:14:51;18.30;99.90
23532;DHT22;11943;52.270;20.978;2023-07-31T00:17:17;18.30;99.90
23532;DHT22;11943;52.270;20.978;2023-07-31T00:19:42;18.30;99.90
23532;DHT22;11943;52.270;20.978;2023-07-31T00:22:08;18.20;99.90
23532;DHT22;11943;52.270;20.978;2023-07-31T00:24:34;18.30;99.90
23532;DHT22;11943;52.270;20.978;2023-07-31T00:26:59;18.20;99.90
23532;DHT22;11943;52.270;20.978;2023-07-31T00:29:25;18.20;99.90
23532;DHT22;11943;52.270;20.978;2023-07-31T00:31:51;18.20;99.90
23532;DHT22;11943;52.270;20.978;2023-07-31T00:34:16;18.20;99.90
23532;DHT22;11943;52.270;20.978;2023-07-31T00:36:42;18.20;99.90
23532;DHT22;11943;52.270;20.978;2023-07-31T00:39:07;18.20;99.90
23532;DHT22;11943;52.270;20.978;2023-07-31T00:41:33;18.20;99.90
23532;DHT22;11943;52.270;20.978;2023-07-31T00:43:58;18.30;99.90
23532;DHT22;11943;52.270;20.978;2023-07-31T00:46:24;18.20;99.90
23532;DHT22;11943;52.270;20.978;2023-07-31T00:48:50;18.20;99.90
23532;DHT22;11943;52.270;20.978;2023-07-31T00:51:16;18.20;99.90
23532;DHT22;11943;52.270;20.978;2023-07-31T00:53:43;18.20;99.90
23532;DHT22;11943;52.270;20.978;2023-07-31T00:56:09;18.20;99.90
23532;DHT22;11943;52.270;20.978;2023-07-31T00:58:35;18.20;99.90
23532;DHT22;11943;52.270;20.978;2023-07-31T01:01:01;18.20;99.90
23532;DHT22;11943;52.270;20.978;2023-07-31T01:03:26;18.20;99.90
23532;DHT22;11943;52.270;20.978;2023-07-31T01:08:44;18.10;99.90
23532;DHT22;11943;52.270;20.978;2023-07-31T01:11:30;18.10;99.90
23532;DHT22;11943;52.270;20.978;2023-07-31T01:13:57;18.10;99.90
23532;DHT22;11943;52.270;20.978;2023-07-31T01:16:23;18.00;99.90
23532;DHT22;11943;52.270;20.978;2023-07-31T01:18:49;18.00;99.90
23532;DHT22;11943;52.270;20.978;2023-07-31T01:26:43;17.90;99.90
23532;DHT22;11943;52.270;20.978;2023-07-31T01:29:32;17.90;99.90
23532;DHT22;11943;52.270;20.978;2023-07-31T01:32:02;17.80;99.90
23532;DHT22;11943;52.270;20.978;2023-07-31T01:34:29;17.80;99.90
23532;DHT22;11943;52.270;20.978;2023-07-31T01:36:58;17.80;99.90
23532;DHT22;11943;52.270;20.978;2023-07-31T01:39:24;17.80;99.90
23532;DHT22;11943;52.270;20.978;2023-07-31T01:41:50;17.70;99.90
23532;DHT22;11943;52.270;20.978;2023-07-31T01:44:16;17.70;99.90
23532;DHT22;11943;52.270;20.978;2023-07-31T01:46:41;17.70;99.90
23532;DHT22;11943;52.270;20.978;2023-07-31T01:49:07;17.70;99.90
23532;DHT22;11943;52.270;20.978;2023-07-31T01:51:33;17.70;99.90
23532;DHT22;11943;52.270;20.978;2023-07-31T01:54:00;17.70;99.90
23532;DHT22;11943;52.270;20.978;2023-07-31T01:56:26;17.60;99.90
23532;DHT22;11943;52.270;20.978;2023-07-31T01:58:52;17.60;99.90
23532;DHT22;11943;52.270;20.978;2023-07-31T02:01:17;17.60;99.90
23532;DHT22;11943;52.270;20.978;2023-07-31T02:03:43;17.50;99.90
23532;DHT22;11943;52.270;20.978;2023-07-31T02:06:09;17.50;99.90
23532;DHT22;11943;52.270;20.978;2023-07-31T02:08:34;17.50;99.90
23532;DHT22;11943;52.270;20.978;2023-07-31T02:11:00;17.50;99.90
23532;DHT22;11943;52.270;20.978;2023-07-31T02:13:25;17.40;99.90
23532;DHT22;11943;52.270;20.978;2023-07-31T02:15:51;17.40;99.90
23532;DHT22;11943;52.270;20.978;2023-07-31T02:18:17;17.40;99.90
23532;DHT22;11943;52.270;20.978;2023-07-31T02:20:42;17.40;99.90
23532;DHT22;11943;52.270;20.978;2023-07-31T02:23:08;17.30;99.90
23532;DHT22;11943;52.270;20.978;2023-07-31T02:25:34;17.30;99.90
23532;DHT22;11943;52.270;20.978;2023-07-31T02:28:00;17.30;99.90
23532;DHT22;11943;52.270;20.978;2023-07-31T02:30:25;17.30;99.90
23532;DHT22;11943;52.270;20.978;2023-07-31T02:32:51;17.20;99.90
23532;DHT22;11943;52.270;20.978;2023-07-31T02:35:17;17.20;99.90
23532;DHT22;11943;52.270;20.978;2023-07-31T02:37:43;17.20;99.90
23532;DHT22;11943;52.270;20.978;2023-07-31T02:40:09;17.10;99.90
23532;DHT22;11943;52.270;20.978;2023-07-31T02:42:35;17.10;99.90
23532;DHT22;11943;52.270;20.978;2023-07-31T02:45:01;17.20;99.90
23532;DHT22;11943;52.270;20.978;2023-07-31T02:47:26;17.20;99.90
23532;DHT22;11943;52.270;20.978;2023-07-31T02:49:53;17.20;99.90
23532;DHT22;11943;52.270;20.978;2023-07-31T02:52:19;17.20;99.90
23532;DHT22;11943;52.270;20.978;2023-07-31T02:54:45;17.20;99.90
23532;DHT22;11943;52.270;20.978;2023-07-31T02:57:10;17.20;99.90
23532;DHT22;11943;52.270;20.978;2023-07-31T02:59:36;17.30;99.90
23532;DHT22;11943;52.270;20.978;2023-07-31T03:02:02;17.30;99.90
23532;DHT22;11943;52.270;20.978;2023-07-31T03:04:28;17.30;99.90
23532;DHT22;11943;52.270;20.978;2023-07-31T03:06:53;17.30;99.90
23532;DHT22;11943;52.270;20.978;2023-07-31T03:09:19;17.30;99.90
23532;DHT22;11943;52.270;20.978;2023-07-31T03:11:44;17.30;99.90
23532;DHT22;11943;52.270;20.978;2023-07-31T03:14:10;17.40;99.90
23532;DHT22;11943;52.270;20.978;2023-07-31T03:16:36;17.40;99.90
23532;DHT22;11943;52.270;20.978;2023-07-31T03:19:01;17.40;99.90
23532;DHT22;11943;52.270;20.978;2023-07-31T03:21:27;17.40;99.90
23532;DHT22;11943;52.270;20.978;2023-07-31T03:23:53;17.30;99.90
23532;DHT22;11943;52.270;20.978;2023-07-31T03:26:18;17.40;99.90
23532;DHT22;11943;52.270;20.978;2023-07-31T03:28:44;17.40;99.90
23532;DHT22;11943;52.270;20.978;2023-07-31T03:31:10;17.40;99.90
23532;DHT22;11943;52.270;20.978;2023-07-31T03:33:36;17.50;99.90
23532;DHT22;11943;52.270;20.978;2023-07-31T03:36:02;17.50;99.90
23532;DHT22;11943;52.270;20.978;2023-07-31T03:38:28;17.50;99.90
23532;DHT22;11943;52.270;20.978;2023-07-31T03:40:54;17.50;99.90
23532;DHT22;11943;52.270;20.978;2023-07-31T03:43:19;17.50;99.90
23532;DHT22;11943;52.270;20.978;2023-07-31T03:45:45;17.50;99.90
23532;DHT22;11943;52.270;20.978;2023-07-31T03:48:11;17.50;99.90
23532;DHT22;11943;52.270;20.978;2023-07-31T03:50:36;17.50;99.90
23532;DHT22;11943;52.270;20.978;2023-07-31T03:53:02;17.50;99.90
23532;DHT22;11943;52.270;20.978;2023-07-31T03:55:28;17.50;99.90
23532;DHT22;11943;52.270;20.978;2023-07-31T03:57:53;17.50;99.90
23532;DHT22;11943;52.270;20.978;2023-07-31T04:00:19;17.50;99.90
23532;DHT22;11943;52.270;20.978;2023-07-31T04:02:44;17.50;99.90
23532;DHT22;11943;52.270;20.978;2023-07-31T04:05:10;17.60;99.90
23532;DHT22;11943;52.270;20.978;2023-07-31T04:07:36;17.50;99.90
23532;DHT22;11943;52.270;20.978;2023-07-31T04:10:03;17.60;99.90
23532;DHT22;11943;52.270;20.978;2023-07-31T04:12:29;17.60;99.90
23532;DHT22;11943;52.270;20.978;2023-07-31T04:14:55;17.60;99.90
23532;DHT22;11943;52.270;20.978;2023-07-31T04:17:20;17.60;99.90
23532;DHT22;11943;52.270;20.978;2023-07-31T04:19:46;17.60;99.90
23532;DHT22;11943;52.270;20.978;2023-07-31T04:22:11;17.60;99.90
23532;DHT22;11943;52.270;20.978;2023-07-31T04:24:37;17.60;99.90
23532;DHT22;11943;52.270;20.978;2023-07-31T04:27:03;17.60;99.90
23532;DHT22;11943;52.270;20.978;2023-07-31T04:29:28;17.60;99.90
23532;DHT22;11943;52.270;20.978;2023-07-31T04:31:54;17.60;99.90
23532;DHT22;11943;52.270;20.978;2023-07-31T04:34:20;17.60;99.90
23532;DHT22;11943;52.270;20.978;2023-07-31T04:36:45;17.60;99.90
23532;DHT22;11943;52.270;20.978;2023-07-31T04:39:11;17.60;99.90
23532;DHT22;11943;52.270;20.978;2023-07-31T04:41:37;17.60;99.90
23532;DHT22;11943;52.270;20.978;2023-07-31T04:44:02;17.60;99.90
23532;DHT22;11943;52.270;20.978;2023-07-31T04:46:29;17.70;99.90
23532;DHT22;11943;52.270;20.978;2023-07-31T04:48:55;17.70;99.90
23532;DHT22;11943;52.270;20.978;2023-07-31T04:51:21;17.70;99.90
23532;DHT22;11943;52.270;20.978;2023-07-31T04:53:47;17.80;99.90
23532;DHT22;11943;52.270;20.978;2023-07-31T04:56:12;17.80;99.90
23532;DHT22;11943;52.270;20.978;2023-07-31T04:58:39;17.80;99.90
23532;DHT22;11943;52.270;20.978;2023-07-31T05:01:04;17.80;99.90
23532;DHT22;11943;52.270;20.978;2023-07-31T05:03:30;17.80;99.90
23532;DHT22;11943;52.270;20.978;2023-07-31T05:05:55;17.80;99.90
23532;DHT22;11943;52.270;20.978;2023-07-31T05:08:21;17.90;99.90
23532;DHT22;11943;52.270;20.978;2023-07-31T05:10:47;17.90;99.90
23532;DHT22;11943;52.270;20.978;2023-07-31T05:13:12;17.90;99.90
23532;DHT22;11943;52.270;20.978;2023-07-31T05:15:38;18.00;99.90
23532;DHT22;11943;52.270;20.978;2023-07-31T05:18:04;18.00;99.90
23532;DHT22;11943;52.270;20.978;2023-07-31T05:20:29;18.00;99.90
23532;DHT22;11943;52.270;20.978;2023-07-31T05:22:55;18.00;99.90
23532;DHT22;11943;52.270;20.978;2023-07-31T05:25:20;17.90;99.90
23532;DHT22;11943;52.270;20.978;2023-07-31T05:27:46;18.00;99.90
23532;DHT22;11943;52.270;20.978;2023-07-31T05:30:12;18.00;99.90
23532;DHT22;11943;52.270;20.978;2023-07-31T05:32:37;18.10;99.90
23532;DHT22;11943;52.270;20.978;2023-07-31T05:35:03;18.20;99.90
23532;DHT22;11943;52.270;20.978;2023-07-31T05:37:29;18.20;99.90
23532;DHT22;11943;52.270;20.978;2023-07-31T05:39:54;18.20;99.90
23532;DHT22;11943;52.270;20.978;2023-07-31T05:42:20;18.20;99.90
23532;DHT22;11943;52.270;20.978;2023-07-31T05:44:46;18.20;99.90
23532;DHT22;11943;52.270;20.978;2023-07-31T05:47:12;18.20;99.90
23532;DHT22;11943;52.270;20.978;2023-07-31T05:49:38;18.20;99.90
23532;DHT22;11943;52.270;20.978;2023-07-31T05:52:04;18.20;99.90
23532;DHT22;11943;52.270;20.978;2023-07-31T05:54:29;18.20;99.90
23532;DHT22;11943;52.270;20.978;2023-07-31T05:56:55;18.20;99.90
23532;DHT22;11943;52.270;20.978;2023-07-31T05:59:21;18.20;99.90
23532;DHT22;11943;52.270;20.978;2023-07-31T06:01:46;18.20;99.90
23532;DHT22;11943;52.270;20.978;2023-07-31T06:04:12;18.20;99.90
23532;DHT22;11943;52.270;20.978;2023-07-31T06:06:38;18.30;99.90
23532;DHT22;11943;52.270;20.978;2023-07-31T06:09:03;18.30;99.90
23532;DHT22;11943;52.270;20.978;2023-07-31T06:11:29;18.40;99.90
23532;DHT22;11943;52.270;20.978;2023-07-31T06:13:55;18.40;99.90
23532;DHT22;11943;52.270;20.978;2023-07-31T06:16:20;18.30;99.90
23532;DHT22;11943;52.270;20.978;2023-07-31T06:18:47;18.40;99.90
23532;DHT22;11943;52.270;20.978;2023-07-31T06:21:13;18.30;99.90
23532;DHT22;11943;52.270;20.978;2023-07-31T06:23:39;18.30;99.90
23532;DHT22;11943;52.270;20.978;2023-07-31T06:26:04;18.30;99.90
23532;DHT22;11943;52.270;20.978;2023-07-31T06:28:31;18.20;99.90
23532;DHT22;11943;52.270;20.978;2023-07-31T06:30:58;18.20;99.90
23532;DHT22;11943;52.270;20.978;2023-07-31T06:33:24;18.10;99.90
23532;DHT22;11943;52.270;20.978;2023-07-31T06:35:50;18.10;99.90
23532;DHT22;11943;52.270;20.978;2023-07-31T06:40:43;18.00;99.90
23532;DHT22;11943;52.270;20.978;2023-07-31T06:43:09;18.00;99.90
23532;DHT22;11943;52.270;20.978;2023-07-31T06:45:35;17.90;99.90
23532;DHT22;11943;52.270;20.978;2023-07-31T06:48:02;17.90;99.90
23532;DHT22;11943;52.270;20.978;2023-07-31T06:50:32;17.90;99.90
23532;DHT22;11943;52.270;20.978;2023-07-31T06:52:58;18.00;99.90
23532;DHT22;11943;52.270;20.978;2023-07-31T06:55:25;18.00;99.90
23532;DHT22;11943;52.270;20.978;2023-07-31T06:57:53;18.00;99.90
23532;DHT22;11943;52.270;20.978;2023-07-31T07:00:20;18.10;99.90
23532;DHT22;11943;52.270;20.978;2023-07-31T07:02:46;18.20;99.90
23532;DHT22;11943;52.270;20.978;2023-07-31T07:05:15;18.30;99.90
23532;DHT22;11943;52.270;20.978;2023-07-31T07:07:41;18.30;99.90
23532;DHT22;11943;52.270;20.978;2023-07-31T07:10:08;18.40;99.90
23532;DHT22;11943;52.270;20.978;2023-07-31T07:12:34;18.50;99.90
23532;DHT22;11943;52.270;20.978;2023-07-31T07:15:01;18.50;99.90
23532;DHT22;11943;52.270;20.978;2023-07-31T07:17:28;18.70;99.90
23532;DHT22;11943;52.270;20.978;2023-07-31T07:19:56;18.80;99.90
23532;DHT22;11943;52.270;20.978;2023-07-31T07:22:23;19.00;99.90
23532;DHT22;11943;52.270;20.978;2023-07-31T07:24:48;19.10;99.90
23532;DHT22;11943;52.270;20.978;2023-07-31T07:27:14;19.40;99.90
23532;DHT22;11943;52.270;20.978;2023-07-31T07:29:40;19.70;99.90
23532;DHT22;11943;52.270;20.978;2023-07-31T07:32:06;20.20;99.90
23532;DHT22;11943;52.270;20.978;2023-07-31T07:34:31;20.40;99.90
23532;DHT22;11943;52.270;20.978;2023-07-31T07:36:57;20.50;99.90
23532;DHT22;11943;52.270;20.978;2023-07-31T07:39:23;20.60;99.90
23532;DHT22;11943;52.270;20.978;2023-07-31T07:41:48;20.50;99.90
23532;DHT22;11943;52.270;20.978;2023-07-31T07:44:14;20.70;99.90
23532;DHT22;11943;52.270;20.978;2023-07-31T07:46:40;20.80;99.90
23532;DHT22;11943;52.270;20.978;2023-07-31T07:49:06;20.90;99.90
23532;DHT22;11943;52.270;20.978;2023-07-31T07:51:32;21.00;99.90
23532;DHT22;11943;52.270;20.978;2023-07-31T07:53:58;21.00;99.90
23532;DHT22;11943;52.270;20.978;2023-07-31T07:56:25;21.00;99.90
23532;DHT22;11943;52.270;20.978;2023-07-31T07:58:51;21.00;99.90
23532;DHT22;11943;52.270;20.978;2023-07-31T08:01:16;21.10;99.90
23532;DHT22;11943;52.270;20.978;2023-07-31T08:03:42;21.30;99.90
23532;DHT22;11943;52.270;20.978;2023-07-31T08:06:08;21.40;99.90
23532;DHT22;11943;52.270;20.978;2023-07-31T08:08:35;21.50;99.90
23532;DHT22;11943;52.270;20.978;2023-07-31T08:11:01;21.50;99.90
23532;DHT22;11943;52.270;20.978;2023-07-31T08:13:26;21.60;99.90
23532;DHT22;11943;52.270;20.978;2023-07-31T08:15:52;21.80;99.90
23532;DHT22;11943;52.270;20.978;2023-07-31T08:18:18;22.00;99.90
23532;DHT22;11943;52.270;20.978;2023-07-31T08:20:44;22.10;99.90
23532;DHT22;11943;52.270;20.978;2023-07-31T08:23:10;21.90;99.90
23532;DHT22;11943;52.270;20.978;2023-07-31T08:25:36;22.00;99.90
23532;DHT22;11943;52.270;20.978;2023-07-31T08:28:03;22.20;99.90
23532;DHT22;11943;52.270;20.978;2023-07-31T08:30:28;22.50;99.80
23532;DHT22;11943;52.270;20.978;2023-07-31T08:32:54;22.80;95.80
23532;DHT22;11943;52.270;20.978;2023-07-31T08:35:20;22.70;96.70
23532;DHT22;11943;52.270;20.978;2023-07-31T08:37:45;22.70;97.00
23532;DHT22;11943;52.270;20.978;2023-07-31T08:40:11;22.80;97.10
23532;DHT22;11943;52.270;20.978;2023-07-31T08:42:47;22.90;96.50
23532;DHT22;11943;52.270;20.978;2023-07-31T08:45:15;22.70;95.20
23532;DHT22;11943;52.270;20.978;2023-07-31T08:47:47;22.80;93.70
23532;DHT22;11943;52.270;20.978;2023-07-31T08:50:14;22.80;93.70
23532;DHT22;11943;52.270;20.978;2023-07-31T08:52:40;23.00;93.40
23532;DHT22;11943;52.270;20.978;2023-07-31T08:55:07;23.00;90.70
23532;DHT22;11943;52.270;20.978;2023-07-31T08:57:36;23.20;91.80
23532;DHT22;11943;52.270;20.978;2023-07-31T09:00:03;23.20;86.50
23532;DHT22;11943;52.270;20.978;2023-07-31T09:02:46;23.30;88.00
23532;DHT22;11943;52.270;20.978;2023-07-31T09:05:14;23.20;89.30
23532;DHT22;11943;52.270;20.978;2023-07-31T09:07:42;23.40;90.70
23532;DHT22;11943;52.270;20.978;2023-07-31T09:10:11;23.50;87.40
23532;DHT22;11943;52.270;20.978;2023-07-31T09:12:38;23.40;86.60
23532;DHT22;11943;52.270;20.978;2023-07-31T09:15:05;23.40;83.50
23532;DHT22;11943;52.270;20.978;2023-07-31T09:17:32;23.20;82.20
23532;DHT22;11943;52.270;20.978;2023-07-31T09:19:57;23.00;82.80
23532;DHT22;11943;52.270;20.978;2023-07-31T09:22:34;23.00;83.90
23532;DHT22;11943;52.270;20.978;2023-07-31T09:25:19;22.80;84.30
23532;DHT22;11943;52.270;20.978;2023-07-31T09:27:48;22.90;88.70
23532;DHT22;11943;52.270;20.978;2023-07-31T09:30:15;23.00;87.00
23532;DHT22;11943;52.270;20.978;2023-07-31T09:32:41;22.90;85.20
23532;DHT22;11943;52.270;20.978;2023-07-31T09:35:30;23.10;87.60
23532;DHT22;11943;52.270;20.978;2023-07-31T09:37:59;23.20;83.80
23532;DHT22;11943;52.270;20.978;2023-07-31T09:40:34;23.00;80.60
23532;DHT22;11943;52.270;20.978;2023-07-31T09:43:05;22.80;81.00
23532;DHT22;11943;52.270;20.978;2023-07-31T09:45:34;23.00;82.00
23532;DHT22;11943;52.270;20.978;2023-07-31T09:48:01;23.30;82.60
23532;DHT22;11943;52.270;20.978;2023-07-31T09:50:28;23.50;81.00
23532;DHT22;11943;52.270;20.978;2023-07-31T09:52:54;23.40;78.80
23532;DHT22;11943;52.270;20.978;2023-07-31T09:55:20;23.20;77.10
23532;DHT22;11943;52.270;20.978;2023-07-31T09:57:47;22.90;78.80
23532;DHT22;11943;52.270;20.978;2023-07-31T10:00:15;22.80;79.50
23532;DHT22;11943;52.270;20.978;2023-07-31T10:02:41;22.90;80.50
23532;DHT22;11943;52.270;20.978;2023-07-31T10:05:07;23.00;75.80
23532;DHT22;11943;52.270;20.978;2023-07-31T10:07:38;23.30;74.40
23532;DHT22;11943;52.270;20.978;2023-07-31T10:10:05;23.50;72.60
23532;DHT22;11943;52.270;20.978;2023-07-31T10:12:33;23.80;74.60
23532;DHT22;11943;52.270;20.978;2023-07-31T10:15:00;24.00;72.90
23532;DHT22;11943;52.270;20.978;2023-07-31T10:17:26;23.90;71.30
23532;DHT22;11943;52.270;20.978;2023-07-31T10:19:53;23.90;70.90
23532;DHT22;11943;52.270;20.978;2023-07-31T10:22:22;24.10;68.50
23532;DHT22;11943;52.270;20.978;2023-07-31T10:24:48;24.20;67.40
23532;DHT22;11943;52.270;20.978;2023-07-31T10:27:14;24.10;64.80
23532;DHT22;11943;52.270;20.978;2023-07-31T10:29:41;23.80;65.80
23532;DHT22;11943;52.270;20.978;2023-07-31T10:32:09;23.60;66.10
23532;DHT22;11943;52.270;20.978;2023-07-31T10:34:38;23.70;66.50
23532;DHT22;11943;52.270;20.978;2023-07-31T10:37:25;23.70;62.10
23532;DHT22;11943;52.270;20.978;2023-07-31T10:40:02;23.60;62.80
23532;DHT22;11943;52.270;20.978;2023-07-31T10:42:37;23.50;64.30
23532;DHT22;11943;52.270;20.978;2023-07-31T10:45:05;23.50;65.90
23532;DHT22;11943;52.270;20.978;2023-07-31T10:47:36;23.70;64.30
23532;DHT22;11943;52.270;20.978;2023-07-31T10:50:13;23.70;63.00
23532;DHT22;11943;52.270;20.978;2023-07-31T10:52:39;23.70;62.20
23532;DHT22;11943;52.270;20.978;2023-07-31T10:58:00;24.10;63.50
23532;DHT22;11943;52.270;20.978;2023-07-31T11:00:30;24.10;58.80
23532;DHT22;11943;52.270;20.978;2023-07-31T11:03:00;23.80;59.70
23532;DHT22;11943;52.270;20.978;2023-07-31T11:05:52;23.70;60.80
23532;DHT22;11943;52.270;20.978;2023-07-31T11:08:25;23.90;63.30
23532;DHT22;11943;52.270;20.978;2023-07-31T11:11:06;24.10;61.20
23532;DHT22;11943;52.270;20.978;2023-07-31T11:16:05;24.30;60.10
23532;DHT22;11943;52.270;20.978;2023-07-31T11:18:30;24.20;59.10
23532;DHT22;11943;52.270;20.978;2023-07-31T11:20:56;24.20;59.70
23532;DHT22;11943;52.270;20.978;2023-07-31T11:23:22;23.90;59.10
23532;DHT22;11943;52.270;20.978;2023-07-31T11:25:49;23.90;61.60
23532;DHT22;11943;52.270;20.978;2023-07-31T11:28:16;24.10;60.20
23532;DHT22;11943;52.270;20.978;2023-07-31T11:30:43;23.80;59.50
23532;DHT22;11943;52.270;20.978;2023-07-31T11:33:11;23.80;60.90
23532;DHT22;11943;52.270;20.978;2023-07-31T11:35:44;24.10;60.40
23532;DHT22;11943;52.270;20.978;2023-07-31T11:38:11;24.00;59.70
23532;DHT22;11943;52.270;20.978;2023-07-31T11:40:41;23.80;60.10
23532;DHT22;11943;52.270;20.978;2023-07-31T11:43:07;23.90;62.10
23532;DHT22;11943;52.270;20.978;2023-07-31T11:45:33;24.00;62.60
23532;DHT22;11943;52.270;20.978;2023-07-31T11:48:01;24.20;60.70
23532;DHT22;11943;52.270;20.978;2023-07-31T11:50:27;24.30;57.40
23532;DHT22;11943;52.270;20.978;2023-07-31T11:53:04;23.90;57.80
23532;DHT22;11943;52.270;20.978;2023-07-31T11:55:33;23.70;60.10
23532;DHT22;11943;52.270;20.978;2023-07-31T11:57:59;23.70;59.00
23532;DHT22;11943;52.270;20.978;2023-07-31T12:00:26;23.60;60.60
23532;DHT22;11943;52.270;20.978;2023-07-31T12:02:53;23.70;60.30
23532;DHT22;11943;52.270;20.978;2023-07-31T12:05:19;23.70;60.30
23532;DHT22;11943;52.270;20.978;2023-07-31T12:07:50;23.70;60.00
23532;DHT22;11943;52.270;20.978;2023-07-31T12:10:42;23.70;61.00
23532;DHT22;11943;52.270;20.978;2023-07-31T12:13:24;23.80;62.90
23532;DHT22;11943;52.270;20.978;2023-07-31T12:15:56;23.70;60.40
23532;DHT22;11943;52.270;20.978;2023-07-31T12:18:26;23.60;62.30
23532;DHT22;11943;52.270;20.978;2023-07-31T12:20:57;23.60;62.70
23532;DHT22;11943;52.270;20.978;2023-07-31T12:23:26;23.50;64.60
23532;DHT22;11943;52.270;20.978;2023-07-31T12:26:12;23.50;61.70
23532;DHT22;11943;52.270;20.978;2023-07-31T12:28:42;23.50;64.00
23532;DHT22;11943;52.270;20.978;2023-07-31T12:31:14;23.50;63.20
23532;DHT22;11943;52.270;20.978;2023-07-31T12:33:41;23.50;67.50
23532;DHT22;11943;52.270;20.978;2023-07-31T12:36:09;23.60;63.70
23532;DHT22;11943;52.270;20.978;2023-07-31T12:38:35;23.60;64.40
23532;DHT22;11943;52.270;20.978;2023-07-31T12:41:01;23.50;63.60
23532;DHT22;11943;52.270;20.978;2023-07-31T12:43:26;23.50;65.30
23532;DHT22;11943;52.270;20.978;2023-07-31T12:45:54;23.60;64.70
23532;DHT22;11943;52.270;20.978;2023-07-31T12:48:19;23.60;65.20
23532;DHT22;11943;52.270;20.978;2023-07-31T12:50:45;23.70;64.10
23532;DHT22;11943;52.270;20.978;2023-07-31T12:53:11;23.50;64.90
23532;DHT22;11943;52.270;20.978;2023-07-31T12:55:36;23.60;67.50
23532;DHT22;11943;52.270;20.978;2023-07-31T12:58:03;23.80;65.40
23532;DHT22;11943;52.270;20.978;2023-07-31T13:00:29;24.00;64.80
23532;DHT22;11943;52.270;20.978;2023-07-31T13:02:54;24.00;63.60
23532;DHT22;11943;52.270;20.978;2023-07-31T13:05:20;23.90;64.00
23532;DHT22;11943;52.270;20.978;2023-07-31T13:07:47;23.90;64.20
23532;DHT22;11943;52.270;20.978;2023-07-31T13:10:13;23.80;64.40
23532;DHT22;11943;52.270;20.978;2023-07-31T13:12:39;23.90;65.60
23532;DHT22;11943;52.270;20.978;2023-07-31T13:15:05;23.90;63.00
23532;DHT22;11943;52.270;20.978;2023-07-31T13:17:31;24.00;62.40
23532;DHT22;11943;52.270;20.978;2023-07-31T13:19:57;24.20;64.40
23532;DHT22;11943;52.270;20.978;2023-07-31T13:22:23;24.60;65.10
23532;DHT22;11943;52.270;20.978;2023-07-31T13:24:48;24.80;58.20
23532;DHT22;11943;52.270;20.978;2023-07-31T13:27:14;24.70;58.60
23532;DHT22;11943;52.270;20.978;2023-07-31T13:29:48;24.30;59.00
23532;DHT22;11943;52.270;20.978;2023-07-31T13:32:15;24.30;59.90
23532;DHT22;11943;52.270;20.978;2023-07-31T13:34:40;24.20;59.70
23532;DHT22;11943;52.270;20.978;2023-07-31T13:37:06;24.00;58.20
23532;DHT22;11943;52.270;20.978;2023-07-31T13:39:32;23.70;59.60
23532;DHT22;11943;52.270;20.978;2023-07-31T13:41:59;23.70;58.40
23532;DHT22;11943;52.270;20.978;2023-07-31T13:44:24;23.80;59.30
23532;DHT22;11943;52.270;20.978;2023-07-31T13:46:51;24.10;57.60
23532;DHT22;11943;52.270;20.978;2023-07-31T13:49:16;24.30;57.60
23532;DHT22;11943;52.270;20.978;2023-07-31T13:51:42;24.40;56.80
23532;DHT22;11943;52.270;20.978;2023-07-31T13:54:08;24.90;57.60
23532;DHT22;11943;52.270;20.978;2023-07-31T13:56:33;24.70;55.00
23532;DHT22;11943;52.270;20.978;2023-07-31T13:58:59;24.30;55.10
23532;DHT22;11943;52.270;20.978;2023-07-31T14:01:26;24.00;56.40
23532;DHT22;11943;52.270;20.978;2023-07-31T14:03:52;24.00;57.30
23532;DHT22;11943;52.270;20.978;2023-07-31T14:06:17;24.00;57.40
23532;DHT22;11943;52.270;20.978;2023-07-31T14:08:43;23.90;56.10
23532;DHT22;11943;52.270;20.978;2023-07-31T14:11:09;23.90;57.10
23532;DHT22;11943;52.270;20.978;2023-07-31T14:13:34;23.70;57.60
23532;DHT22;11943;52.270;20.978;2023-07-31T14:16:00;23.60;59.10
23532;DHT22;11943;52.270;20.978;2023-07-31T14:18:25;23.60;59.50
23532;DHT22;11943;52.270;20.978;2023-07-31T14:20:51;23.50;59.40
23532;DHT22;11943;52.270;20.978;2023-07-31T14:23:17;23.50;60.70
23532;DHT22;11943;52.270;20.978;2023-07-31T14:25:45;23.60;58.90
23532;DHT22;11943;52.270;20.978;2023-07-31T14:28:11;23.50;59.40
23532;DHT22;11943;52.270;20.978;2023-07-31T14:30:36;23.50;58.80
23532;DHT22;11943;52.270;20.978;2023-07-31T14:33:02;23.60;58.90
23532;DHT22;11943;52.270;20.978;2023-07-31T14:35:28;23.70;59.40
23532;DHT22;11943;52.270;20.978;2023-07-31T14:37:54;23.70;58.60
23532;DHT22;11943;52.270;20.978;2023-07-31T14:40:20;23.70;58.50
23532;DHT22;11943;52.270;20.978;2023-07-31T14:42:45;23.50;58.50
23532;DHT22;11943;52.270;20.978;2023-07-31T14:45:11;23.40;59.50
23532;DHT22;11943;52.270;20.978;2023-07-31T14:47:37;23.40;60.60
23532;DHT22;11943;52.270;20.978;2023-07-31T14:50:03;23.80;61.60
23532;DHT22;11943;52.270;20.978;2023-07-31T14:52:29;24.20;58.90
23532;DHT22;11943;52.270;20.978;2023-07-31T14:54:55;24.20;58.80
23532;DHT22;11943;52.270;20.978;2023-07-31T14:57:21;24.30;57.90
23532;DHT22;11943;52.270;20.978;2023-07-31T14:59:47;24.00;58.90
23532;DHT22;11943;52.270;20.978;2023-07-31T15:02:12;23.90;60.90
23532;DHT22;11943;52.270;20.978;2023-07-31T15:04:38;23.80;60.30
23532;DHT22;11943;52.270;20.978;2023-07-31T15:07:04;23.50;60.00
23532;DHT22;11943;52.270;20.978;2023-07-31T15:09:30;23.40;61.50
23532;DHT22;11943;52.270;20.978;2023-07-31T15:11:57;23.30;62.80
23532;DHT22;11943;52.270;20.978;2023-07-31T15:14:23;23.20;62.90
23532;DHT22;11943;52.270;20.978;2023-07-31T15:16:49;23.20;63.40
23532;DHT22;11943;52.270;20.978;2023-07-31T15:19:15;23.10;62.80
23532;DHT22;11943;52.270;20.978;2023-07-31T15:21:41;23.10;63.50
23532;DHT22;11943;52.270;20.978;2023-07-31T15:24:07;23.10;64.80
23532;DHT22;11943;52.270;20.978;2023-07-31T15:26:33;23.10;63.70
23532;DHT22;11943;52.270;20.978;2023-07-31T15:29:05;23.10;62.90